N24S ZSSS-ZSNJ
Flight info
| Callsign | N24S |
|---|---|
| Flight time | 1h 14m |
| Altitude | 3900 |
| Route | VFR |
| Aircraft | DA40/L-SDGRY/S |
Departure
| Time | 2026-04-25 06:52 |
|---|---|
| Airport | Shanghai Hongqiao International Airport (ZSSS) |
Arrival
| Time | 2026-04-25 08:07 |
|---|---|
| Airport | Nanjing Lukou International Airport (ZSNJ) |
| Time | Latitude | Longitude | Altitude | Speed | Heading |
|---|---|---|---|---|---|
| 2026-04-25 06:47 | 31.18609 | 121.32880 | 3 ft | 0 kts | 265° |
| 2026-04-25 06:50 | 31.18623 | 121.32865 | 3 ft | 5 kts | 19° |
| 2026-04-25 06:50 | 31.18625 | 121.32939 | 3 ft | 18 kts | 91° |
| 2026-04-25 06:51 | 31.18501 | 121.33068 | 3 ft | 32 kts | 158° |
| 2026-04-25 06:51 | 31.18474 | 121.33174 | 4 ft | 19 kts | 61° |
| 2026-04-25 06:51 | 31.18498 | 121.33297 | 5 ft | 16 kts | 33° |
| 2026-04-25 06:51 | 31.18618 | 121.33305 | 4 ft | 19 kts | 357° |
| 2026-04-25 06:52 | 31.18861 | 121.33296 | 5 ft | 59 kts | 358° |
| 2026-04-25 06:52 | 31.19390 | 121.33274 | 91 ft | 82 kts | 354° |
| 2026-04-25 06:52 | 31.19948 | 121.33236 | 321 ft | 83 kts | 345° |
| 2026-04-25 06:52 | 31.20477 | 121.33008 | 619 ft | 75 kts | 319° |
| 2026-04-25 06:53 | 31.20854 | 121.32551 | 880 ft | 81 kts | 295° |
| 2026-04-25 06:53 | 31.20917 | 121.31980 | 1287 ft | 70 kts | 249° |
| 2026-04-25 06:53 | 31.20686 | 121.31464 | 1597 ft | 74 kts | 244° |
| 2026-04-25 06:53 | 31.20499 | 121.30928 | 1944 ft | 75 kts | 263° |
| 2026-04-25 06:54 | 31.20547 | 121.30471 | 3147 ft | 42 kts | 287° |
| 2026-04-25 06:54 | 31.20618 | 121.30122 | 3872 ft | 53 kts | 287° |
| 2026-04-25 06:54 | 31.20753 | 121.29533 | 3892 ft | 92 kts | 284° |
| 2026-04-25 06:54 | 31.20942 | 121.28742 | 3885 ft | 106 kts | 287° |
| 2026-04-25 06:55 | 31.21147 | 121.27914 | 3899 ft | 106 kts | 282° |
| 2026-04-25 06:55 | 31.21362 | 121.27065 | 3910 ft | 115 kts | 284° |
| 2026-04-25 06:55 | 31.21603 | 121.26133 | 3893 ft | 122 kts | 287° |
| 2026-04-25 06:55 | 31.21844 | 121.25217 | 3889 ft | 112 kts | 283° |
| 2026-04-25 06:56 | 31.22059 | 121.24389 | 3895 ft | 104 kts | 283° |
| 2026-04-25 06:56 | 31.22260 | 121.23611 | 3908 ft | 104 kts | 284° |
| 2026-04-25 06:56 | 31.22482 | 121.22752 | 3907 ft | 116 kts | 285° |
| 2026-04-25 06:56 | 31.22722 | 121.21833 | 3899 ft | 120 kts | 285° |
| 2026-04-25 06:57 | 31.22958 | 121.20930 | 4027 ft | 112 kts | 285° |
| 2026-04-25 06:57 | 31.23181 | 121.20024 | 3983 ft | 120 kts | 284° |
| 2026-04-25 06:57 | 31.23399 | 121.19091 | 4037 ft | 117 kts | 282° |
| 2026-04-25 06:57 | 31.23637 | 121.18170 | 4011 ft | 121 kts | 291° |
| 2026-04-25 06:58 | 31.23917 | 121.17228 | 3971 ft | 124 kts | 287° |
| 2026-04-25 06:58 | 31.24176 | 121.16261 | 3943 ft | 125 kts | 286° |
| 2026-04-25 06:58 | 31.24432 | 121.15288 | 3931 ft | 124 kts | 286° |
| 2026-04-25 06:58 | 31.24682 | 121.14332 | 3936 ft | 123 kts | 286° |
| 2026-04-25 06:59 | 31.24933 | 121.13373 | 3940 ft | 125 kts | 285° |
| 2026-04-25 06:59 | 31.25187 | 121.12397 | 3937 ft | 125 kts | 286° |
| 2026-04-25 06:59 | 31.25438 | 121.11426 | 3943 ft | 125 kts | 284° |
| 2026-04-25 06:59 | 31.25687 | 121.10441 | 3944 ft | 128 kts | 285° |
| 2026-04-25 07:00 | 31.25951 | 121.09444 | 3943 ft | 129 kts | 286° |
| 2026-04-25 07:00 | 31.26216 | 121.08441 | 3941 ft | 130 kts | 286° |
| 2026-04-25 07:00 | 31.26481 | 121.07431 | 3943 ft | 130 kts | 286° |
| 2026-04-25 07:00 | 31.26740 | 121.06437 | 3937 ft | 129 kts | 286° |
| 2026-04-25 07:01 | 31.26996 | 121.05448 | 3933 ft | 126 kts | 285° |
| 2026-04-25 07:01 | 31.27247 | 121.04479 | 3934 ft | 124 kts | 285° |
| 2026-04-25 07:01 | 31.27496 | 121.03518 | 3933 ft | 123 kts | 286° |
| 2026-04-25 07:01 | 31.27743 | 121.02567 | 3933 ft | 122 kts | 286° |
| 2026-04-25 07:02 | 31.27989 | 121.01621 | 3935 ft | 122 kts | 286° |
| 2026-04-25 07:02 | 31.28234 | 121.00677 | 3934 ft | 121 kts | 285° |
| 2026-04-25 07:02 | 31.28479 | 120.99732 | 3934 ft | 121 kts | 285° |
| 2026-04-25 07:02 | 31.28724 | 120.98787 | 3933 ft | 121 kts | 285° |
| 2026-04-25 07:03 | 31.28968 | 120.97845 | 3932 ft | 121 kts | 285° |
| 2026-04-25 07:03 | 31.29211 | 120.96908 | 3933 ft | 120 kts | 285° |
| 2026-04-25 07:03 | 31.29454 | 120.95971 | 3935 ft | 121 kts | 285° |
| 2026-04-25 07:03 | 31.29698 | 120.95028 | 3935 ft | 121 kts | 285° |
| 2026-04-25 07:04 | 31.29943 | 120.94083 | 3933 ft | 121 kts | 285° |
| 2026-04-25 07:04 | 31.30186 | 120.93141 | 3932 ft | 121 kts | 285° |
| 2026-04-25 07:04 | 31.30426 | 120.92216 | 3935 ft | 120 kts | 285° |
| 2026-04-25 07:04 | 31.30669 | 120.91275 | 3934 ft | 121 kts | 285° |
| 2026-04-25 07:05 | 31.30913 | 120.90333 | 3932 ft | 121 kts | 285° |
| 2026-04-25 07:05 | 31.31156 | 120.89392 | 3935 ft | 121 kts | 285° |
| 2026-04-25 07:05 | 31.31400 | 120.88448 | 3934 ft | 121 kts | 285° |
| 2026-04-25 07:05 | 31.31644 | 120.87505 | 3933 ft | 121 kts | 285° |
| 2026-04-25 07:06 | 31.31887 | 120.86566 | 3934 ft | 121 kts | 285° |
| 2026-04-25 07:06 | 31.32130 | 120.85620 | 3935 ft | 121 kts | 285° |
| 2026-04-25 07:06 | 31.32375 | 120.84672 | 3934 ft | 122 kts | 285° |
| 2026-04-25 07:06 | 31.32618 | 120.83731 | 3935 ft | 123 kts | 285° |
| 2026-04-25 07:07 | 31.32865 | 120.82772 | 3936 ft | 123 kts | 285° |
| 2026-04-25 07:07 | 31.33112 | 120.81815 | 3935 ft | 123 kts | 285° |
| 2026-04-25 07:07 | 31.33359 | 120.80855 | 3935 ft | 123 kts | 285° |
| 2026-04-25 07:07 | 31.33606 | 120.79898 | 3934 ft | 123 kts | 285° |
| 2026-04-25 07:08 | 31.33852 | 120.78941 | 3935 ft | 122 kts | 285° |
| 2026-04-25 07:08 | 31.34098 | 120.77987 | 3935 ft | 122 kts | 286° |
| 2026-04-25 07:08 | 31.34344 | 120.77031 | 3935 ft | 123 kts | 285° |
| 2026-04-25 07:08 | 31.34590 | 120.76073 | 3934 ft | 123 kts | 285° |
| 2026-04-25 07:09 | 31.34836 | 120.75119 | 3934 ft | 122 kts | 285° |
| 2026-04-25 07:09 | 31.35077 | 120.74180 | 3935 ft | 122 kts | 285° |
| 2026-04-25 07:09 | 31.35322 | 120.73228 | 3935 ft | 122 kts | 285° |
| 2026-04-25 07:09 | 31.35568 | 120.72272 | 3934 ft | 123 kts | 285° |
| 2026-04-25 07:10 | 31.35814 | 120.71314 | 3935 ft | 122 kts | 285° |
| 2026-04-25 07:10 | 31.36058 | 120.70362 | 3934 ft | 122 kts | 285° |
| 2026-04-25 07:10 | 31.36302 | 120.69410 | 3934 ft | 122 kts | 285° |
| 2026-04-25 07:10 | 31.36547 | 120.68457 | 3934 ft | 122 kts | 285° |
| 2026-04-25 07:11 | 31.36788 | 120.67518 | 3934 ft | 122 kts | 285° |
| 2026-04-25 07:11 | 31.37031 | 120.66570 | 3933 ft | 121 kts | 285° |
| 2026-04-25 07:11 | 31.37272 | 120.65630 | 3936 ft | 121 kts | 285° |
| 2026-04-25 07:11 | 31.37515 | 120.64683 | 3937 ft | 122 kts | 285° |
| 2026-04-25 07:12 | 31.37758 | 120.63730 | 3934 ft | 122 kts | 285° |
| 2026-04-25 07:12 | 31.38245 | 120.61828 | 3940 ft | 124 kts | 285° |
| 2026-04-25 07:12 | 31.38495 | 120.60852 | 3941 ft | 126 kts | 285° |
| 2026-04-25 07:13 | 31.38753 | 120.59864 | 3942 ft | 127 kts | 285° |
| 2026-04-25 07:13 | 31.39003 | 120.58875 | 3940 ft | 127 kts | 285° |
| 2026-04-25 07:13 | 31.39254 | 120.57884 | 3937 ft | 127 kts | 285° |
| 2026-04-25 07:13 | 31.39505 | 120.56901 | 3933 ft | 125 kts | 285° |
| 2026-04-25 07:14 | 31.39752 | 120.55937 | 3934 ft | 123 kts | 285° |
| 2026-04-25 07:14 | 31.39996 | 120.54979 | 3935 ft | 123 kts | 285° |
| 2026-04-25 07:14 | 31.40240 | 120.54023 | 3935 ft | 122 kts | 285° |
| 2026-04-25 07:14 | 31.40481 | 120.53080 | 3937 ft | 122 kts | 285° |
| 2026-04-25 07:15 | 31.40725 | 120.52123 | 3938 ft | 123 kts | 285° |
| 2026-04-25 07:15 | 31.40971 | 120.51159 | 3943 ft | 125 kts | 286° |
| 2026-04-25 07:15 | 31.41222 | 120.50172 | 3944 ft | 128 kts | 285° |
| 2026-04-25 07:15 | 31.41479 | 120.49170 | 3940 ft | 129 kts | 285° |
| 2026-04-25 07:16 | 31.41734 | 120.48175 | 3932 ft | 126 kts | 286° |
| 2026-04-25 07:16 | 31.41981 | 120.47202 | 3934 ft | 123 kts | 285° |
| 2026-04-25 07:16 | 31.42225 | 120.46238 | 3934 ft | 123 kts | 285° |
| 2026-04-25 07:16 | 31.42468 | 120.45281 | 3934 ft | 122 kts | 285° |
| 2026-04-25 07:17 | 31.42710 | 120.44329 | 3935 ft | 122 kts | 285° |
| 2026-04-25 07:17 | 31.42952 | 120.43378 | 3935 ft | 122 kts | 285° |
| 2026-04-25 07:17 | 31.43195 | 120.42422 | 3935 ft | 122 kts | 285° |
| 2026-04-25 07:17 | 31.43437 | 120.41468 | 3934 ft | 122 kts | 285° |
| 2026-04-25 07:18 | 31.43679 | 120.40516 | 3935 ft | 122 kts | 285° |
| 2026-04-25 07:18 | 31.43916 | 120.39580 | 3933 ft | 121 kts | 285° |
| 2026-04-25 07:18 | 31.44156 | 120.38639 | 3935 ft | 120 kts | 285° |
| 2026-04-25 07:18 | 31.44395 | 120.37694 | 3935 ft | 121 kts | 285° |
| 2026-04-25 07:19 | 31.44635 | 120.36746 | 3933 ft | 121 kts | 285° |
| 2026-04-25 07:19 | 31.44875 | 120.35804 | 3933 ft | 120 kts | 285° |
| 2026-04-25 07:19 | 31.45113 | 120.34863 | 3934 ft | 121 kts | 285° |
| 2026-04-25 07:19 | 31.45353 | 120.33917 | 3934 ft | 121 kts | 285° |
| 2026-04-25 07:20 | 31.45592 | 120.32974 | 3934 ft | 121 kts | 285° |
| 2026-04-25 07:20 | 31.45831 | 120.32028 | 3935 ft | 122 kts | 285° |
| 2026-04-25 07:20 | 31.45991 | 120.31396 | 3935 ft | 122 kts | 285° |
| 2026-04-25 07:20 | 31.46311 | 120.30133 | 3933 ft | 122 kts | 285° |
| 2026-04-25 07:21 | 31.46551 | 120.29186 | 3934 ft | 121 kts | 285° |
| 2026-04-25 07:21 | 31.46790 | 120.28239 | 3935 ft | 121 kts | 285° |
| 2026-04-25 07:21 | 31.47030 | 120.27288 | 3935 ft | 122 kts | 285° |
| 2026-04-25 07:21 | 31.47271 | 120.26335 | 3934 ft | 122 kts | 285° |
| 2026-04-25 07:22 | 31.47430 | 120.25704 | 3934 ft | 122 kts | 285° |
| 2026-04-25 07:22 | 31.47671 | 120.24753 | 3935 ft | 122 kts | 284° |
| 2026-04-25 07:22 | 31.47911 | 120.23802 | 3935 ft | 122 kts | 285° |
| 2026-04-25 07:22 | 31.48150 | 120.22854 | 3935 ft | 121 kts | 285° |
| 2026-04-25 07:23 | 31.48390 | 120.21904 | 3935 ft | 122 kts | 285° |
| 2026-04-25 07:23 | 31.48631 | 120.20950 | 3936 ft | 122 kts | 285° |
| 2026-04-25 07:23 | 31.48872 | 120.19993 | 3936 ft | 123 kts | 285° |
| 2026-04-25 07:23 | 31.49114 | 120.19034 | 3934 ft | 123 kts | 285° |
| 2026-04-25 07:24 | 31.49355 | 120.18078 | 3935 ft | 122 kts | 285° |
| 2026-04-25 07:24 | 31.49595 | 120.17123 | 3936 ft | 122 kts | 285° |
| 2026-04-25 07:24 | 31.49836 | 120.16168 | 3934 ft | 122 kts | 285° |
| 2026-04-25 07:24 | 31.50076 | 120.15212 | 3936 ft | 122 kts | 285° |
| 2026-04-25 07:25 | 31.50317 | 120.14257 | 3935 ft | 122 kts | 285° |
| 2026-04-25 07:25 | 31.50557 | 120.13302 | 3935 ft | 122 kts | 285° |
| 2026-04-25 07:25 | 31.50797 | 120.12347 | 3936 ft | 122 kts | 285° |
| 2026-04-25 07:25 | 31.51038 | 120.11389 | 3934 ft | 122 kts | 285° |
| 2026-04-25 07:26 | 31.51274 | 120.10449 | 3935 ft | 122 kts | 285° |
| 2026-04-25 07:26 | 31.51514 | 120.09493 | 3936 ft | 123 kts | 285° |
| 2026-04-25 07:26 | 31.51755 | 120.08530 | 3934 ft | 123 kts | 285° |
| 2026-04-25 07:26 | 31.51996 | 120.07572 | 3935 ft | 122 kts | 285° |
| 2026-04-25 07:27 | 31.52237 | 120.06614 | 3935 ft | 122 kts | 285° |
| 2026-04-25 07:27 | 31.52477 | 120.05656 | 3936 ft | 122 kts | 285° |
| 2026-04-25 07:27 | 31.52718 | 120.04697 | 3934 ft | 122 kts | 285° |
| 2026-04-25 07:27 | 31.52955 | 120.03750 | 3935 ft | 123 kts | 285° |
| 2026-04-25 07:28 | 31.53196 | 120.02789 | 3936 ft | 123 kts | 285° |
| 2026-04-25 07:28 | 31.53436 | 120.01829 | 3934 ft | 123 kts | 285° |
| 2026-04-25 07:28 | 31.53676 | 120.00873 | 3935 ft | 122 kts | 285° |
| 2026-04-25 07:28 | 31.53915 | 119.99918 | 3935 ft | 122 kts | 285° |
| 2026-04-25 07:29 | 31.54153 | 119.98965 | 3934 ft | 122 kts | 285° |
| 2026-04-25 07:29 | 31.54391 | 119.98015 | 3936 ft | 121 kts | 285° |
| 2026-04-25 07:29 | 31.54629 | 119.97061 | 3937 ft | 122 kts | 285° |
| 2026-04-25 07:29 | 31.54869 | 119.96103 | 3936 ft | 123 kts | 285° |
| 2026-04-25 07:30 | 31.55109 | 119.95141 | 3937 ft | 123 kts | 285° |
| 2026-04-25 07:30 | 31.55350 | 119.94176 | 3937 ft | 124 kts | 284° |
| 2026-04-25 07:30 | 31.55592 | 119.93207 | 3938 ft | 124 kts | 285° |
| 2026-04-25 07:30 | 31.55834 | 119.92240 | 3937 ft | 123 kts | 285° |
| 2026-04-25 07:31 | 31.56074 | 119.91277 | 3935 ft | 123 kts | 285° |
| 2026-04-25 07:31 | 31.56310 | 119.90330 | 3935 ft | 122 kts | 285° |
| 2026-04-25 07:31 | 31.56549 | 119.89371 | 3935 ft | 122 kts | 285° |
| 2026-04-25 07:31 | 31.56787 | 119.88414 | 3935 ft | 122 kts | 285° |
| 2026-04-25 07:32 | 31.57023 | 119.87471 | 3935 ft | 121 kts | 285° |
| 2026-04-25 07:32 | 31.57258 | 119.86525 | 3937 ft | 121 kts | 285° |
| 2026-04-25 07:32 | 31.57495 | 119.85573 | 3936 ft | 122 kts | 285° |
| 2026-04-25 07:32 | 31.57733 | 119.84617 | 3938 ft | 123 kts | 285° |
| 2026-04-25 07:33 | 31.57974 | 119.83652 | 3937 ft | 123 kts | 285° |
| 2026-04-25 07:33 | 31.58213 | 119.82688 | 3933 ft | 122 kts | 285° |
| 2026-04-25 07:33 | 31.58450 | 119.81737 | 3934 ft | 121 kts | 285° |
| 2026-04-25 07:33 | 31.58686 | 119.80788 | 3935 ft | 121 kts | 284° |
| 2026-04-25 07:34 | 31.58922 | 119.79838 | 3935 ft | 122 kts | 285° |
| 2026-04-25 07:34 | 31.59156 | 119.78895 | 3937 ft | 122 kts | 285° |
| 2026-04-25 07:34 | 31.59395 | 119.77933 | 3937 ft | 123 kts | 285° |
| 2026-04-25 07:34 | 31.59634 | 119.76967 | 3936 ft | 123 kts | 285° |
| 2026-04-25 07:35 | 31.59875 | 119.76000 | 3935 ft | 123 kts | 285° |
| 2026-04-25 07:35 | 31.60113 | 119.75037 | 3936 ft | 123 kts | 285° |
| 2026-04-25 07:35 | 31.60353 | 119.74070 | 3938 ft | 124 kts | 285° |
| 2026-04-25 07:35 | 31.60594 | 119.73099 | 3943 ft | 125 kts | 285° |
| 2026-04-25 07:36 | 31.60839 | 119.72103 | 3944 ft | 128 kts | 285° |
| 2026-04-25 07:36 | 31.61088 | 119.71103 | 3944 ft | 129 kts | 285° |
| 2026-04-25 07:36 | 31.61340 | 119.70091 | 3943 ft | 129 kts | 285° |
| 2026-04-25 07:36 | 31.61591 | 119.69080 | 3944 ft | 129 kts | 285° |
| 2026-04-25 07:37 | 31.61842 | 119.68067 | 3942 ft | 129 kts | 285° |
| 2026-04-25 07:37 | 31.62052 | 119.67048 | 3938 ft | 128 kts | 275° |
| 2026-04-25 07:37 | 31.62142 | 119.66006 | 3938 ft | 128 kts | 276° |
| 2026-04-25 07:37 | 31.62233 | 119.64966 | 3937 ft | 128 kts | 275° |
| 2026-04-25 07:38 | 31.62323 | 119.63936 | 3934 ft | 126 kts | 275° |
| 2026-04-25 07:38 | 31.62412 | 119.62920 | 3933 ft | 124 kts | 275° |
| 2026-04-25 07:38 | 31.62499 | 119.61918 | 3933 ft | 123 kts | 276° |
| 2026-04-25 07:38 | 31.62586 | 119.60917 | 3933 ft | 123 kts | 275° |
| 2026-04-25 07:39 | 31.62672 | 119.59922 | 3934 ft | 122 kts | 275° |
| 2026-04-25 07:39 | 31.62758 | 119.58931 | 3932 ft | 121 kts | 275° |
| 2026-04-25 07:39 | 31.62844 | 119.57950 | 3934 ft | 120 kts | 275° |
| 2026-04-25 07:39 | 31.62929 | 119.56968 | 3933 ft | 121 kts | 275° |
| 2026-04-25 07:40 | 31.63013 | 119.55985 | 3932 ft | 121 kts | 275° |
| 2026-04-25 07:40 | 31.63098 | 119.55005 | 3934 ft | 121 kts | 275° |
| 2026-04-25 07:40 | 31.63183 | 119.54023 | 3934 ft | 121 kts | 275° |
| 2026-04-25 07:40 | 31.63269 | 119.53039 | 3935 ft | 121 kts | 275° |
| 2026-04-25 07:41 | 31.63354 | 119.52051 | 3936 ft | 122 kts | 276° |
| 2026-04-25 07:41 | 31.63440 | 119.51057 | 3934 ft | 122 kts | 276° |
| 2026-04-25 07:41 | 31.63525 | 119.50075 | 3934 ft | 122 kts | 275° |
| 2026-04-25 07:41 | 31.63609 | 119.49090 | 3935 ft | 121 kts | 275° |
| 2026-04-25 07:42 | 31.63695 | 119.48095 | 3940 ft | 123 kts | 275° |
| 2026-04-25 07:42 | 31.63782 | 119.47088 | 3938 ft | 125 kts | 276° |
| 2026-04-25 07:42 | 31.63868 | 119.46080 | 3933 ft | 123 kts | 275° |
| 2026-04-25 07:42 | 31.63953 | 119.45092 | 3935 ft | 123 kts | 275° |
| 2026-04-25 07:43 | 31.64039 | 119.44089 | 3933 ft | 123 kts | 275° |
| 2026-04-25 07:43 | 31.64124 | 119.43098 | 3933 ft | 122 kts | 275° |
| 2026-04-25 07:43 | 31.64209 | 119.42108 | 3936 ft | 122 kts | 275° |
| 2026-04-25 07:43 | 31.64294 | 119.41111 | 3935 ft | 123 kts | 275° |
| 2026-04-25 07:44 | 31.64378 | 119.40120 | 3936 ft | 122 kts | 275° |
| 2026-04-25 07:44 | 31.64464 | 119.39121 | 3939 ft | 124 kts | 275° |
| 2026-04-25 07:44 | 31.64544 | 119.38183 | 3938 ft | 126 kts | 276° |
| 2026-04-25 07:44 | 31.64627 | 119.37152 | 3939 ft | 128 kts | 276° |
| 2026-04-25 07:45 | 31.64718 | 119.36118 | 3934 ft | 127 kts | 275° |
| 2026-04-25 07:45 | 31.64807 | 119.35093 | 3931 ft | 125 kts | 274° |
| 2026-04-25 07:45 | 31.64889 | 119.34088 | 3956 ft | 126 kts | 270° |
| 2026-04-25 07:45 | 31.64979 | 119.33037 | 3964 ft | 132 kts | 271° |
| 2026-04-25 07:46 | 31.65072 | 119.31947 | 3965 ft | 136 kts | 271° |
| 2026-04-25 07:46 | 31.65167 | 119.30836 | 3951 ft | 138 kts | 271° |
| 2026-04-25 07:46 | 31.65260 | 119.29720 | 3957 ft | 137 kts | 271° |
| 2026-04-25 07:46 | 31.65358 | 119.28609 | 3960 ft | 136 kts | 271° |
| 2026-04-25 07:47 | 31.65451 | 119.27518 | 3965 ft | 131 kts | 270° |
| 2026-04-25 07:47 | 31.65541 | 119.26439 | 3958 ft | 135 kts | 270° |
| 2026-04-25 07:47 | 31.65631 | 119.25349 | 3957 ft | 137 kts | 271° |
| 2026-04-25 07:47 | 31.65726 | 119.24233 | 3960 ft | 137 kts | 271° |
| 2026-04-25 07:48 | 31.65819 | 119.23120 | 3960 ft | 137 kts | 271° |
| 2026-04-25 07:48 | 31.65913 | 119.22008 | 3960 ft | 136 kts | 271° |
| 2026-04-25 07:48 | 31.66007 | 119.20895 | 3962 ft | 137 kts | 271° |
| 2026-04-25 07:48 | 31.66100 | 119.19783 | 3962 ft | 137 kts | 271° |
| 2026-04-25 07:49 | 31.66193 | 119.18669 | 3961 ft | 137 kts | 271° |
| 2026-04-25 07:49 | 31.66287 | 119.17554 | 3959 ft | 137 kts | 271° |
| 2026-04-25 07:49 | 31.66379 | 119.16460 | 3961 ft | 137 kts | 271° |
| 2026-04-25 07:49 | 31.66471 | 119.15353 | 3962 ft | 136 kts | 271° |
| 2026-04-25 07:50 | 31.66561 | 119.14246 | 3965 ft | 137 kts | 270° |
| 2026-04-25 07:50 | 31.66653 | 119.13121 | 3952 ft | 138 kts | 271° |
| 2026-04-25 07:50 | 31.66746 | 119.12000 | 3963 ft | 139 kts | 271° |
| 2026-04-25 07:50 | 31.66844 | 119.10872 | 3964 ft | 139 kts | 271° |
| 2026-04-25 07:51 | 31.66938 | 119.09741 | 3963 ft | 139 kts | 271° |
| 2026-04-25 07:51 | 31.67031 | 119.08610 | 3960 ft | 138 kts | 271° |
| 2026-04-25 07:51 | 31.67123 | 119.07506 | 3960 ft | 137 kts | 271° |
| 2026-04-25 07:51 | 31.67214 | 119.06388 | 3958 ft | 137 kts | 270° |
| 2026-04-25 07:52 | 31.67306 | 119.05271 | 3960 ft | 137 kts | 271° |
| 2026-04-25 07:52 | 31.67399 | 119.04157 | 3957 ft | 137 kts | 270° |
| 2026-04-25 07:52 | 31.67490 | 119.03048 | 3953 ft | 136 kts | 270° |
| 2026-04-25 07:52 | 31.67581 | 119.01943 | 3955 ft | 136 kts | 271° |
| 2026-04-25 07:53 | 31.67672 | 119.00843 | 3959 ft | 135 kts | 271° |
| 2026-04-25 07:53 | 31.67762 | 118.99742 | 3960 ft | 136 kts | 271° |
| 2026-04-25 07:53 | 31.67853 | 118.98639 | 3960 ft | 136 kts | 271° |
| 2026-04-25 07:53 | 31.67942 | 118.97539 | 3960 ft | 135 kts | 269° |
| 2026-04-25 07:54 | 31.67788 | 118.96479 | 3956 ft | 131 kts | 241° |
| 2026-04-25 07:54 | 31.67334 | 118.95572 | 3957 ft | 129 kts | 233° |
| 2026-04-25 07:54 | 31.66860 | 118.94690 | 3957 ft | 129 kts | 233° |
| 2026-04-25 07:54 | 31.66381 | 118.93799 | 3956 ft | 129 kts | 233° |
| 2026-04-25 07:55 | 31.65901 | 118.92902 | 3957 ft | 130 kts | 233° |
| 2026-04-25 07:55 | 31.65421 | 118.92004 | 3956 ft | 130 kts | 233° |
| 2026-04-25 07:55 | 31.64942 | 118.91109 | 3956 ft | 129 kts | 233° |
| 2026-04-25 07:55 | 31.64463 | 118.90214 | 3956 ft | 129 kts | 233° |
| 2026-04-25 07:56 | 31.63991 | 118.89332 | 3958 ft | 129 kts | 233° |
| 2026-04-25 07:56 | 31.63512 | 118.88436 | 3958 ft | 129 kts | 233° |
| 2026-04-25 07:56 | 31.63034 | 118.87540 | 3959 ft | 130 kts | 233° |
| 2026-04-25 07:56 | 31.62551 | 118.86639 | 3958 ft | 130 kts | 233° |
| 2026-04-25 07:57 | 31.62069 | 118.85743 | 3954 ft | 129 kts | 232° |
| 2026-04-25 07:57 | 31.61592 | 118.84852 | 3956 ft | 129 kts | 233° |
| 2026-04-25 07:57 | 31.61117 | 118.83963 | 3955 ft | 129 kts | 233° |
| 2026-04-25 07:57 | 31.60639 | 118.83071 | 3956 ft | 129 kts | 233° |
| 2026-04-25 07:58 | 31.60153 | 118.82165 | 3897 ft | 134 kts | 233° |
| 2026-04-25 07:58 | 31.59646 | 118.81220 | 3785 ft | 139 kts | 233° |
| 2026-04-25 07:58 | 31.59130 | 118.80257 | 3639 ft | 142 kts | 233° |
| 2026-04-25 07:58 | 31.58602 | 118.79268 | 3507 ft | 143 kts | 233° |
| 2026-04-25 07:59 | 31.58072 | 118.78280 | 3370 ft | 143 kts | 233° |
| 2026-04-25 07:59 | 31.57542 | 118.77290 | 3233 ft | 143 kts | 233° |
| 2026-04-25 07:59 | 31.57171 | 118.76199 | 3097 ft | 148 kts | 255° |
| 2026-04-25 07:59 | 31.57226 | 118.74981 | 2960 ft | 153 kts | 281° |
| 2026-04-25 08:00 | 31.57739 | 118.73892 | 2887 ft | 155 kts | 309° |
| 2026-04-25 08:00 | 31.58603 | 118.73116 | 2800 ft | 157 kts | 326° |
| 2026-04-25 08:00 | 31.59534 | 118.72440 | 2695 ft | 158 kts | 327° |
| 2026-04-25 08:00 | 31.60474 | 118.71752 | 2586 ft | 159 kts | 326° |
| 2026-04-25 08:01 | 31.61402 | 118.71082 | 2486 ft | 158 kts | 329° |
| 2026-04-25 08:01 | 31.62457 | 118.70747 | 2387 ft | 158 kts | 358° |
| 2026-04-25 08:01 | 31.63519 | 118.71006 | 2301 ft | 155 kts | 27° |
| 2026-04-25 08:01 | 31.64351 | 118.71759 | 2225 ft | 149 kts | 56° |
| 2026-04-25 08:02 | 31.64931 | 118.72760 | 2150 ft | 146 kts | 64° |
| 2026-04-25 08:02 | 31.65457 | 118.73756 | 2152 ft | 142 kts | 64° |
| 2026-04-25 08:02 | 31.65985 | 118.74749 | 2032 ft | 146 kts | 63° |
| 2026-04-25 08:02 | 31.66538 | 118.75794 | 1830 ft | 154 kts | 63° |
| 2026-04-25 08:03 | 31.67104 | 118.76857 | 1625 ft | 157 kts | 63° |
| 2026-04-25 08:03 | 31.67703 | 118.77970 | 1406 ft | 160 kts | 64° |
| 2026-04-25 08:03 | 31.68225 | 118.78950 | 1217 ft | 126 kts | 64° |
| 2026-04-25 08:03 | 31.68648 | 118.79741 | 1069 ft | 105 kts | 66° |
| 2026-04-25 08:04 | 31.69007 | 118.80410 | 940 ft | 87 kts | 66° |
| 2026-04-25 08:04 | 31.69313 | 118.80994 | 831 ft | 86 kts | 65° |
| 2026-04-25 08:04 | 31.69649 | 118.81625 | 691 ft | 94 kts | 68° |
| 2026-04-25 08:04 | 31.69993 | 118.82259 | 583 ft | 91 kts | 66° |
| 2026-04-25 08:05 | 31.70349 | 118.82884 | 432 ft | 94 kts | 61° |
| 2026-04-25 08:05 | 31.70667 | 118.83518 | 321 ft | 89 kts | 68° |
| 2026-04-25 08:05 | 31.70994 | 118.84131 | 204 ft | 88 kts | 65° |
| 2026-04-25 08:05 | 31.71317 | 118.84737 | 91 ft | 87 kts | 63° |
| 2026-04-25 08:06 | 31.71576 | 118.85270 | 45 ft | 60 kts | 57° |
| 2026-04-25 08:06 | 31.71853 | 118.85732 | 60 ft | 78 kts | 66° |
| 2026-04-25 08:06 | 31.72083 | 118.86220 | 54 ft | 70 kts | 60° |
| 2026-04-25 08:06 | 31.72348 | 118.86700 | 42 ft | 59 kts | 52° |
| 2026-04-25 08:07 | 31.72566 | 118.87131 | 45 ft | 55 kts | 62° |
| 2026-04-25 08:07 | 31.72637 | 118.87270 | 43 ft | 0 kts | 60° |